createdAt,value
2023-05-05T00:16:25.558Z,59.30
2023-05-05T00:18:55.911Z,59.00
2023-05-05T00:21:25.363Z,58.80
2023-05-05T00:23:52.776Z,59.10
2023-05-05T00:26:20.052Z,59.10
2023-05-05T00:28:50.793Z,60.20
2023-05-05T00:31:21.813Z,60.00
2023-05-05T00:33:50.479Z,60.40
2023-05-05T00:36:26.918Z,60.50
2023-05-05T00:38:56.851Z,60.90
2023-05-05T00:41:29.273Z,60.90
2023-05-05T00:43:56.654Z,60.70
2023-05-05T00:46:26.277Z,60.80
2023-05-05T00:49:10.236Z,61.20
2023-05-05T00:51:38.056Z,61.10
2023-05-05T00:54:06.037Z,61.20
2023-05-05T00:56:33.781Z,60.90
2023-05-05T00:59:04.455Z,61.60
2023-05-05T01:01:34.450Z,61.60
2023-05-05T01:04:04.812Z,61.90
2023-05-05T01:06:50.934Z,62.20
2023-05-05T01:09:31.675Z,62.10
2023-05-05T01:12:11.327Z,62.20
2023-05-05T01:14:55.032Z,62.40
2023-05-05T01:17:27.295Z,62.40
2023-05-05T01:20:04.707Z,62.50
2023-05-05T01:22:39.439Z,62.50
2023-05-05T01:34:24.836Z,62.40
2023-05-05T01:40:22.694Z,62.90
2023-05-05T01:45:54.865Z,62.80
2023-05-05T01:48:33.748Z,63.60
2023-05-05T01:51:06.335Z,64.00
2023-05-05T01:53:36.848Z,64.50
2023-05-05T01:56:06.592Z,64.30
2023-05-05T01:58:35.423Z,65.00
2023-05-05T02:01:05.559Z,65.10
2023-05-05T02:03:37.574Z,65.10
2023-05-05T03:18:35.334Z,68.10
2023-05-05T04:17:35.808Z,70.60
2023-05-05T04:20:03.068Z,70.20
2023-05-05T04:22:30.004Z,70.10
2023-05-05T04:25:15.375Z,70.30
2023-05-05T04:27:42.325Z,70.50
2023-05-05T04:30:25.324Z,70.70
2023-05-05T04:37:06.401Z,70.60
2023-05-05T04:39:33.327Z,70.90
2023-05-05T04:42:03.561Z,71.00
2023-05-05T04:44:34.042Z,71.00
2023-05-05T04:47:01.444Z,71.10
2023-05-05T04:54:43.702Z,71.30
2023-05-05T04:57:13.474Z,71.20
2023-05-05T04:59:40.534Z,71.30
2023-05-05T05:02:10.707Z,71.10
2023-05-05T05:04:41.256Z,71.10
2023-05-05T05:07:09.338Z,71.30
2023-05-05T05:13:57.243Z,71.60
2023-05-05T05:16:26.019Z,71.10
2023-05-05T05:18:52.975Z,69.80
2023-05-05T05:21:20.475Z,71.20
2023-05-05T05:23:47.595Z,71.30
2023-05-05T05:26:15.240Z,71.70
2023-05-05T05:28:42.549Z,72.00
2023-05-05T05:31:15.399Z,72.10
2023-05-05T05:33:42.408Z,71.50
2023-05-05T05:36:12.161Z,70.80
2023-05-05T05:38:39.771Z,72.00
2023-05-05T05:41:09.772Z,72.10
2023-05-05T05:43:36.643Z,72.20
2023-05-05T05:46:08.937Z,72.20
2023-05-05T05:48:40.469Z,71.90
2023-05-05T05:51:07.523Z,72.10
2023-05-05T05:53:34.591Z,71.80
2023-05-05T05:56:01.568Z,72.10
2023-05-05T05:58:28.721Z,71.80
2023-05-05T06:00:55.616Z,71.70
2023-05-05T06:03:26.621Z,72.50
2023-05-05T06:05:55.932Z,72.50
2023-05-05T06:08:27.277Z,72.50
2023-05-05T06:10:54.431Z,72.60
2023-05-05T06:13:23.887Z,71.50
2023-05-05T06:15:50.967Z,72.30
2023-05-05T06:18:18.083Z,72.70
2023-05-05T06:20:45.211Z,72.60
2023-05-05T06:23:13.549Z,72.30
2023-05-05T06:25:40.706Z,72.50
2023-05-05T06:28:07.583Z,72.90
2023-05-05T06:30:34.705Z,71.90
2023-05-05T06:33:01.648Z,71.80
2023-05-05T06:35:30.270Z,72.40
2023-05-05T06:37:57.229Z,71.90
2023-05-05T06:40:25.633Z,71.40
2023-05-05T06:42:52.584Z,71.80
2023-05-05T06:45:20.032Z,71.60
2023-05-05T06:47:49.146Z,71.60
2023-05-05T06:50:16.301Z,71.50
2023-05-05T06:52:43.515Z,70.90
2023-05-05T06:55:10.949Z,70.30
2023-05-05T06:57:39.267Z,71.30
2023-05-05T07:00:11.355Z,69.90
2023-05-05T07:02:43.857Z,70.00
2023-05-05T07:05:10.920Z,70.30
2023-05-05T07:07:52.631Z,69.00
2023-05-05T07:10:20.856Z,69.10
2023-05-05T07:13:05.336Z,69.30
2023-05-05T07:15:32.869Z,69.00
2023-05-05T07:18:23.933Z,68.60
2023-05-05T07:20:51.826Z,68.00
2023-05-05T07:23:29.032Z,67.50
2023-05-05T07:25:59.084Z,67.70
2023-05-05T07:28:27.412Z,67.80
2023-05-05T07:30:54.752Z,67.00
2023-05-05T07:33:21.777Z,66.60
2023-05-05T07:35:48.684Z,66.40
2023-05-05T07:38:16.121Z,66.60
2023-05-05T07:40:43.020Z,66.40
2023-05-05T07:43:10.477Z,65.80
2023-05-05T07:45:41.720Z,65.60
2023-05-05T07:48:08.767Z,65.30
2023-05-05T07:50:35.710Z,65.10
2023-05-05T07:53:14.374Z,64.90
2023-05-05T07:55:42.424Z,64.60
2023-05-05T07:58:12.408Z,64.60
2023-05-05T08:00:50.311Z,64.50
2023-05-05T08:03:18.246Z,64.30
2023-05-05T08:05:48.968Z,64.60
2023-05-05T08:08:17.599Z,64.10
2023-05-05T08:10:50.869Z,64.00
2023-05-05T08:13:17.931Z,63.60
2023-05-05T08:15:47.837Z,63.70
2023-05-05T08:18:14.914Z,63.10
2023-05-05T08:20:42.202Z,63.20
2023-05-05T08:23:09.211Z,62.90
2023-05-05T08:25:36.346Z,62.20
2023-05-05T08:28:03.324Z,62.00
2023-05-05T08:30:31.138Z,62.20
2023-05-05T08:33:02.599Z,62.10
2023-05-05T08:35:30.311Z,62.50
